Core, West Virginia
Current Conditions -  °F | °C
As of 7:53 PM on Tuesday 25 Nov 2014 (Local Time) from KMGW Reporting Station
Clear Clear  
Wind Chill: 36°   Ceiling: Unl
Heat Index: 40°   Visibility: 10mi
Dew Point: 25°   Wind: 6mph
Humidity: 55%   Direction: 350°N
Pressure: 30.15"   Gusts: NA
Location:  39.68°N, 80.11°W
Report Text: KMGW 260053Z 35005KT 10SM CLR 04/M04 A3015 RMK AO2 SLP216 T00441039
Loading
Personal Weather Stations






























Interactive Weather Map New forecast layout! Learn more

10-Day Weather Forecast

Advertisements
Track Severe Weather on mobile